Flight Track Log - Related Links

Times and Time Zones

All times are in EDT time to prevent confusion due to time zone crossing. See the SWA470 flight status page for this flight to view local times or setup timezone preferences in your user account.

Time Position Orientation Groundspeed Altitude Reporting Facility
EDT Latitude Longitude Course Direction KTS MPH feet Rate Location/Type
Mon 02:34:45 PM 36.0769 -114.9789 83° East 218 251 5,700  Level Los Angeles Center
Mon 02:35:48 PM 36.0872 -114.8794 83° East 279 321 8,100 2,048 Climbing Los Angeles Center
Mon 02:38:00 PM 36.1833 -114.5845 90° East  Level FlightAware Approximate
Mon 02:38:54 PM 36.1431 -114.5442 90° East 358 412 14,200  Level Los Angeles Center
Mon 02:39:56 PM 36.1633 -114.4178 79° East 372 428 16,500 2,468 Climbing Los Angeles Center
Mon 02:40:58 PM 36.1897 -114.2622 78° East 385 443 19,300 2,323 Climbing Los Angeles Center
Mon 02:42:00 PM 36.2061 -114.1275 81° East 394 453 21,300 1,839 Climbing Los Angeles Center
Mon 02:43:02 PM 36.2236 -113.9867 81° East 409 471 23,100 1,742 Climbing Los Angeles Center
Mon 02:44:04 PM 36.2411 -113.8431 81° East 420 483 24,900 1,632 Climbing Los Angeles Center
Mon 02:45:07 PM 36.2586 -113.6950 82° East 432 497 26,500 1,536 Climbing Los Angeles Center
Mon 02:46:09 PM 36.2753 -113.5450 82° East 438 504 28,100 1,694 Climbing Los Angeles Center
Mon 02:47:11 PM 36.2956 -113.3639 82° East 441 507 30,000 1,645 Climbing Los Angeles Center
Mon 02:48:13 PM 36.3167 -113.2117 80° East 442 509 31,500 1,403 Climbing Los Angeles Center
Mon 02:49:15 PM 36.3683 -113.0744 65° Northeast 440 506 32,900 1,306 Climbing Los Angeles Center
Mon 02:50:17 PM 36.4175 -112.9353 66° East 441 507 34,200 792 Climbing Los Angeles Center
Mon 02:51:54 PM 36.4953 -112.7197 66° East 431 496 35,000 302 Climbing Denver Center
Mon 02:52:56 PM 36.5442 -112.5828 66° East 434 499 35,000 -48 Level Denver Center
Mon 02:53:58 PM 36.5933 -112.4461 66° East 435 501 34,900  Descending Denver Center
Mon 02:55:28 PM 36.6717 -112.2258 66° East 436 502 35,000 39 Climbing Los Angeles Center
Mon 02:56:30 PM 36.7197 -112.0889 66° East 436 502 35,000  Level Los Angeles Center
Mon 02:57:32 PM 36.7689 -111.9503 66° East 439 505 35,000  Level Los Angeles Center
Mon 02:58:34 PM 36.8269 -111.7839 66° East 439 505 35,000  Level Los Angeles Center
Mon 02:59:36 PM 36.8753 -111.6453 66° East 438 504 35,000  Level Los Angeles Center
Mon 03:00:10 PM 36.9053 -111.5611 66° East 440 506 35,000  Level Denver Center
Mon 03:01:12 PM 36.9558 -111.4200 66° East 443 510 35,000  Level Denver Center
Mon 03:02:14 PM 37.0000 -111.2822 68° East 436 502 35,000  Level Denver Center
Mon 03:03:16 PM 37.0475 -111.1433 67° East 436 502 35,000  Level Denver Center
Mon 03:04:18 PM 37.0947 -111.0042 67° East 436 502 35,000  Level Denver Center
Mon 03:05:20 PM 37.1514 -110.8358 67° East 438 504 35,000  Level Denver Center
Mon 03:06:22 PM 37.1969 -110.6961 68° East 435 501 35,000  Level Denver Center
Mon 03:08:00 PM 37.2771 -110.4533 67° East  Level FlightAware Approximate
Mon 03:08:39 PM 37.3011 -110.3875 67° East 437 503 35,000  Level Denver Center
Mon 03:09:41 PM 37.3481 -110.2472 67° East 437 503 35,000  Level Denver Center
Mon 03:10:43 PM 37.4003 -110.0858 68° East 435 501 35,000  Level Denver Center
Mon 03:12:00 PM 37.4610 -109.8934 68° East  Level FlightAware Approximate
Mon 03:12:47 PM 37.4956 -109.7942 68° East 435 501 35,000  Level Denver Center
Mon 03:13:49 PM 37.5403 -109.6600 67° East 433 498 35,000  Level Denver Center
Mon 03:15:53 PM 37.6339 -109.3650 68° East 436 502 35,000  Level Denver Center
Mon 03:16:55 PM 37.6775 -109.2311 68° East 433 498 35,000  Level Denver Center
Mon 03:17:57 PM 37.7272 -109.0744 68° East 431 496 35,000  Level Denver Center
Mon 03:18:59 PM 37.7697 -108.9408 68° East 430 495 35,000  Level Denver Center
Mon 03:20:01 PM 37.8183 -108.7836 69° East 429 494 35,000  Level Denver Center
Mon 03:21:03 PM 37.8614 -108.6489 68° East 430 495 35,000  Level Denver Center
Mon 03:22:05 PM 37.9100 -108.4919 69° East 430 495 35,000  Level Denver Center
Mon 03:23:06 PM 37.9511 -108.3564 69° East 430 495 35,000  Level Denver Center
Mon 03:24:08 PM 37.9939 -108.2197 68° East 433 498 35,000  Level Denver Center
Mon 03:25:10 PM 38.0425 -108.0608 69° East 433 498 35,000  Level Denver Center
Mon 03:27:14 PM 38.1333 -107.7617 69° East 429 494 35,000  Level Denver Center
Mon 03:28:16 PM 38.1744 -107.6253 69° East 431 496 35,000  Level Denver Center
Mon 03:29:18 PM 38.2222 -107.4675 69° East 432 497 35,000  Level Denver Center
Mon 03:30:32 PM 38.2625 -107.3306 69° East 432 497 35,000 -44 Level Denver Center
Mon 03:31:34 PM 38.3119 -107.1642 69° East 435 501 34,900  Descending Denver Center
Mon 03:32:36 PM 38.3394 -107.0139 77° East 440 506 35,000 484 Climbing Denver Center
Mon 03:33:38 PM 38.3558 -106.8589 82° East 441 507 35,900 968 Climbing Denver Center
Mon 03:34:40 PM 38.3758 -106.6758 82° East 437 503 37,000 532 Climbing Denver Center
Mon 03:35:42 PM 38.3925 -106.5231 82° East 436 502 37,000  Level Denver Center
Mon 03:36:44 PM 38.4094 -106.3689 82° East 440 506 37,000  Level Denver Center
Mon 03:37:45 PM 38.4242 -106.2139 83° East 442 509 37,000  Level Denver Center
Mon 03:38:47 PM 38.4439 -106.0386 82° East 439 505 37,000  Level Denver Center
Mon 03:39:49 PM 38.4567 -105.8933 84° East 434 499 37,000  Level Denver Center
Mon 03:40:51 PM 38.4750 -105.7233 82° East 433 498 37,000  Level Denver Center
Mon 03:41:52 PM 38.4844 -105.6031 84° East 431 496 37,000  Level Denver Center
Mon 03:42:55 PM 38.5228 -105.4439 73° East 416 479 37,000  Level Denver Center
Mon 03:43:57 PM 38.5681 -105.2875 70° East 420 483 37,000  Level Denver Center
Mon 03:44:58 PM 38.6003 -105.1767 70° East 417 480 37,000  Level Denver Center
Mon 03:46:01 PM 38.6503 -104.9992 70° East 416 479 37,000  Level Denver Center
Mon 03:47:02 PM 38.6881 -104.8650 70° East 416 479 37,000  Level Denver Center
Mon 03:48:04 PM 38.7339 -104.7058 70° East 425 489 37,000  Level Denver Center
Mon 03:49:06 PM 38.7703 -104.5708 71° East 421 484 37,000  Level Denver Center
Mon 03:50:08 PM 38.8150 -104.4103 70° East 424 488 37,000  Level Denver Center
Mon 03:51:10 PM 38.8517 -104.2758 71° East 420 483 37,000  Level Denver Center
Mon 03:52:12 PM 38.8886 -104.1428 70° East 415 478 37,000  Level Denver Center
Mon 03:53:14 PM 38.9311 -103.9853 71° East 417 480 37,000  Level Denver Center
Mon 03:54:16 PM 38.9689 -103.8497 70° East 419 482 37,000  Level Denver Center
Mon 03:55:17 PM 39.0117 -103.6906 71° East 421 484 37,000  Level Denver Center
Mon 03:56:19 PM 39.0481 -103.5539 71° East 420 483 37,000  Level Denver Center
Mon 03:57:21 PM 39.0897 -103.3953 71° East 420 483 37,000  Level Denver Center
Mon 03:58:23 PM 39.1267 -103.2586 71° East 421 484 37,000  Level Denver Center
Mon 03:59:25 PM 39.1678 -103.0981 72° East 422 486 37,000  Level Denver Center
Mon 04:00:27 PM 39.2047 -102.9611 71° East 423 487 37,000  Level Denver Center
Mon 04:01:29 PM 39.2403 -102.8239 71° East 423 487 37,000  Level Denver Center
Mon 04:02:31 PM 39.2789 -102.6753 71° East 422 486 37,000  Level Denver Center
Mon 04:03:32 PM 39.3194 -102.5167 72° East 419 482 37,000  Level Denver Center
Mon 04:04:34 PM 39.3572 -102.3708 71° East 414 476 37,000  Level Denver Center
Mon 04:05:36 PM 39.3919 -102.2361 72° East 414 476 37,000  Level Denver Center
Mon 04:06:38 PM 39.4314 -102.0789 72° East 410 472 37,000  Level Denver Center
Mon 04:07:40 PM 39.4656 -101.9439 72° East 413 475 37,000  Level Denver Center
Mon 04:08:42 PM 39.5047 -101.7842 72° East 416 479 37,000  Level Denver Center
Mon 04:09:44 PM 39.5392 -101.6467 72° East 420 483 37,000  Level Denver Center
Mon 04:10:46 PM 39.5783 -101.4867 72° East 419 482 37,000  Level Denver Center
Mon 04:11:47 PM 39.6072 -101.3703 72° East 425 489 37,000  Level Denver Center
Mon 04:12:49 PM 39.6472 -101.2056 72° East 428 493 37,000  Level Denver Center
Mon 04:13:51 PM 39.6861 -101.0431 73° East 426 490 37,000  Level Denver Center
Mon 04:15:05 PM 39.7203 -100.9025 72° East 427 491 37,000  Level Denver Center
Mon 04:16:08 PM 39.7647 -100.7161 73° East 426 490 37,000  Level Denver Center
Mon 04:17:09 PM 39.7931 -100.5983 73° East 428 493 37,000  Level Denver Center
Mon 04:18:11 PM 39.8367 -100.4128 73° East 422 486 37,000  Level Denver Center
Mon 04:19:13 PM 39.8722 -100.2622 73° East 426 490 37,000  Level Denver Center
Mon 04:20:15 PM 39.9061 -100.1153 73° East 425 489 37,000  Level Denver Center
Mon 04:21:17 PM 39.9403 -99.9675 73° East 427 491 37,000  Level Denver Center
Mon 04:22:19 PM 39.9806 -99.7881 74° East 431 496 37,000  Level Denver Center
Mon 04:23:21 PM 40.0158 -99.6383 73° East 432 497 37,000  Level Denver Center
Mon 04:24:23 PM 40.0500 -99.4889 73° East 433 498 37,000  Level Denver Center
Mon 04:25:25 PM 40.0833 -99.3406 74° East 428 493 37,000  Level Denver Center
Mon 04:26:27 PM 40.1158 -99.1903 74° East 430 495 37,000  Level Denver Center
Mon 04:27:01 PM 40.1372 -99.1036 72° East 428 493 37,000  Level Minneapolis Center
Mon 04:28:03 PM 40.1692 -98.9536 74° East 429 494 37,000  Level Minneapolis Center
Mon 04:29:05 PM 40.2022 -98.8042 74° East 430 495 37,000  Level Minneapolis Center
Mon 04:30:07 PM 40.2397 -98.6272 74° East 425 489 37,000  Level Minneapolis Center
Mon 04:31:09 PM 40.2719 -98.4806 74° East 422 486 37,000  Level Minneapolis Center
Mon 04:32:11 PM 40.3036 -98.3333 74° East 422 486 37,000  Level Minneapolis Center
Mon 04:33:13 PM 40.3347 -98.1833 75° East 426 490 37,000  Level Minneapolis Center
Mon 04:34:16 PM 40.3661 -98.0339 75° East 427 491 37,000  Level Minneapolis Center
Mon 04:35:18 PM 40.3994 -97.8828 74° East 431 496 37,000  Level Minneapolis Center
Mon 04:36:20 PM 40.4361 -97.7008 75° East 432 497 37,000  Level Minneapolis Center
Mon 04:37:22 PM 40.4675 -97.5508 75° East 429 494 37,000  Level Minneapolis Center
Mon 04:38:24 PM 40.4981 -97.4003 75° East 429 494 37,000  Level Minneapolis Center
Mon 04:39:26 PM 40.5289 -97.2528 75° East 429 494 37,000  Level Minneapolis Center
Mon 04:40:28 PM 40.5589 -97.1008 75° East 430 495 37,000  Level Minneapolis Center
Mon 04:41:30 PM 40.5967 -96.9183 75° East 431 496 37,000  Level Minneapolis Center
Mon 04:42:32 PM 40.6264 -96.7656 76° East 432 497 37,000  Level Minneapolis Center
Mon 04:43:34 PM 40.6558 -96.6128 76° East 432 497 37,000  Level Minneapolis Center
Mon 04:44:36 PM 40.6869 -96.4606 75° East 432 497 37,000  Level Minneapolis Center
Mon 04:45:38 PM 40.7164 -96.3061 76° East 436 502 37,000  Level Minneapolis Center
Mon 04:46:53 PM 40.7578 -96.0900 76° East 437 503 37,000  Level Minneapolis Center
Mon 04:47:55 PM 40.7872 -95.9356 76° East 437 503 37,000  Level Minneapolis Center
Mon 04:48:57 PM 40.8161 -95.7819 76° East 436 502 37,000  Level Minneapolis Center
Mon 04:49:59 PM 40.8464 -95.6275 75° East 436 502 37,000  Level Minneapolis Center
Mon 04:51:01 PM 40.8750 -95.4714 76° East 440 506 37,000  Level Minneapolis Center
Mon 04:52:03 PM 40.9092 -95.2858 76° East 437 503 37,000  Level Minneapolis Center
Mon 04:53:05 PM 40.9381 -95.1286 76° East 441 507 37,000  Level Minneapolis Center
Mon 04:54:08 PM 40.9664 -94.9714 77° East 442 509 37,000  Level Minneapolis Center
Mon 04:55:10 PM 40.9944 -94.8156 77° East 438 504 37,000  Level Minneapolis Center
Mon 04:56:12 PM 41.0233 -94.6603 76° East 437 503 37,000  Level Minneapolis Center
Mon 04:57:14 PM 41.0528 -94.4817 78° East 435 501 37,000  Level Minneapolis Center
Mon 04:58:16 PM 41.0789 -94.3286 77° East 431 496 37,000  Level Minneapolis Center
Mon 04:59:18 PM 41.1072 -94.1725 76° East 436 502 37,000  Level Minneapolis Center
Mon 05:00:20 PM 41.1342 -94.0150 77° East 440 506 37,000  Level Minneapolis Center
Mon 05:01:22 PM 41.1603 -93.8567 78° East 442 509 37,000  Level Minneapolis Center
Mon 05:02:24 PM 41.1947 -93.6658 76° East 444 511 37,000  Level Minneapolis Center
Mon 05:03:26 PM 41.2208 -93.5067 78° East 445 512 37,000  Level Minneapolis Center
Mon 05:05:30 PM 41.2739 -93.1886 77° East 442 509 37,000  Level Minneapolis Center
Mon 05:06:32 PM 41.2997 -93.0306 78° East 441 507 37,000 -48 Level Minneapolis Center
Mon 05:07:36 PM 41.3300 -92.8403 78° East 437 503 36,900  Descending Chicago Center
Mon 05:08:38 PM 41.3558 -92.6831 78° East 438 504 37,000 48 Climbing Chicago Center
Mon 05:09:40 PM 41.3803 -92.5258 78° East 437 503 37,000  Level Chicago Center
Mon 05:10:42 PM 41.4061 -92.3683 78° East 441 507 37,000  Level Chicago Center
Mon 05:11:44 PM 41.4308 -92.2108 78° East 440 506 37,000  Level Chicago Center
Mon 05:12:46 PM 41.4589 -92.0236 79° East 436 502 37,000  Level Chicago Center
Mon 05:13:48 PM 41.4833 -91.8650 78° East 439 505 37,000  Level Chicago Center
Mon 05:14:50 PM 41.5078 -91.7086 78° East 438 504 37,000 -32 Level Chicago Center
Mon 05:16:00 PM 41.5256 -91.4972 84° East  Level FlightAware Approximate
Mon 05:16:54 PM 41.5589 -91.3586 84° East 444 511 36,900  Level Chicago Center
Mon 05:17:56 PM 41.5822 -91.1978 79° East 447 514 37,000 48 Climbing Chicago Center
Mon 05:18:58 PM 41.6058 -91.0392 79° East 442 509 37,000  Level Chicago Center
Mon 05:20:01 PM 41.6286 -90.8792 79° East 444 511 37,000  Level Chicago Center
Mon 05:21:03 PM 41.6511 -90.7194 79° East 443 510 37,000  Level Chicago Center
Mon 05:22:05 PM 41.6769 -90.5317 80° East 439 505 37,000  Level Chicago Center
Mon 05:23:07 PM 41.6994 -90.3686 79° East 443 510 37,000  Level Chicago Center
Mon 05:24:09 PM 41.7219 -90.2056 79° East 444 511 37,000  Level Chicago Center
Mon 05:25:11 PM 41.7442 -90.0411 80° East 446 513 37,000  Level Chicago Center
Mon 05:26:13 PM 41.7669 -89.8736 80° East 454 522 37,000  Level Chicago Center
Mon 05:27:15 PM 41.7889 -89.7075 80° East 452 520 37,000  Level Chicago Center
Mon 05:28:17 PM 41.8128 -89.5264 80° East 451 519 37,000  Level Chicago Center
Mon 05:29:19 PM 41.8342 -89.3614 80° East 453 521 37,000  Level Chicago Center
Mon 05:30:21 PM 41.8589 -89.1653 80° East 446 513 37,000  Level Chicago Center
Mon 05:31:23 PM 41.8786 -89.0014 81° East 446 513 37,000  Level Chicago Center
Mon 05:32:26 PM 41.9000 -88.8356 80° East 451 519 37,000  Level Chicago Center
Mon 05:33:28 PM 41.9194 -88.6692 81° East 451 519 37,000  Level Chicago Center
Mon 05:34:30 PM 41.9400 -88.5053 80° East 448 516 37,000  Level Chicago Center
Mon 05:35:32 PM 41.9639 -88.3053 81° East 451 519 37,000  Level Chicago Center
Mon 05:36:34 PM 41.9839 -88.1381 81° East 452 520 37,000  Level Chicago Center
Mon 05:37:36 PM 42.0019 -87.9725 82° East 449 517 37,000  Level Chicago Center
Mon 05:38:38 PM 42.0206 -87.8036 82° East 454 522 37,000  Level Chicago Center
Mon 05:39:40 PM 42.0406 -87.6344 81° East 457 526 37,000  Level Chicago Center
Mon 05:40:42 PM 42.0583 -87.4672 82° East 455 524 37,000  Level Chicago Center
Mon 05:41:44 PM 42.0817 -87.2631 81° East 458 527 37,000 -48 Level Chicago Center
Mon 05:42:46 PM 42.0994 -87.0956 82° East 456 525 36,900  Descending Chicago Center
Mon 05:43:48 PM 42.1175 -86.9247 82° East 460 529 37,000 48 Climbing Chicago Center
Mon 05:44:00 PM 42.0980 -86.8649 82° East  Level FlightAware Approximate
Mon 05:44:51 PM 42.1353 -86.7553 82° East 459 528 37,000  Level Chicago Center
Mon 05:45:53 PM 42.1553 -86.5661 82° East 461 531 36,900  Descending Chicago Center
Mon 05:46:55 PM 42.1731 -86.3956 82° East 460 529 37,000 48 Climbing Chicago Center
Mon 05:47:57 PM 42.1900 -86.2239 82° East 462 532 37,000  Level Chicago Center
Mon 05:48:59 PM 42.2075 -86.0514 82° East 464 534 37,000  Level Chicago Center
Mon 05:50:01 PM 42.2261 -85.8589 82° East 465 535 37,000  Level Chicago Center
Mon 05:51:03 PM 42.2425 -85.6844 83° East 472 543 37,000 -48 Level Chicago Center
Mon 05:52:05 PM 42.2589 -85.5094 83° East 473 544 36,900 -48 Descending Chicago Center
Mon 05:53:07 PM 42.2767 -85.3328 82° East 477 549 36,900 48 Level Chicago Center
Mon 05:54:09 PM 42.2928 -85.1592 83° East 472 543 37,000 48 Climbing Chicago Center
Mon 05:55:11 PM 42.3114 -84.9497 83° East 470 541 37,000  Level Chicago Center
Mon 05:56:13 PM 42.3267 -84.7733 83° East 474 545 37,000 -48 Level Chicago Center
Mon 05:57:15 PM 42.3422 -84.5978 83° East 474 545 36,900  Descending Chicago Center
Mon 05:58:18 PM 42.3575 -84.4208 83° East 474 545 37,000 61 Climbing Chicago Center
Mon 05:58:53 PM 42.3625 -84.3011 87° East 472 543 37,000  Level Cleveland Center
Mon 06:00:53 PM 42.3922 -83.9458 83° East 472 543 37,000 -33 Level Cleveland Center
Mon 06:01:53 PM 42.4078 -83.7694 83° East 472 543 36,900  Descending Cleveland Center
Mon 06:02:53 PM 42.4250 -83.5903 83° East 472 543 37,000 50 Climbing Cleveland Center
Mon 06:03:53 PM 42.4375 -83.4278 84° East 477 549 37,000  Level Cleveland Center
Mon 06:04:53 PM 42.4481 -83.2453 85° East 477 549 37,000  Level Cleveland Center
Mon 06:05:53 PM 42.4606 -83.0656 85° East 477 549 37,000  Level Cleveland Center
Mon 06:06:53 PM 42.4725 -82.8858 85° East 477 549 37,000  Level Cleveland Center
Mon 06:07:53 PM 42.4844 -82.7033 85° East 477 549 37,000  Level Cleveland Center
Mon 06:08:53 PM 42.4958 -82.5233 85° East 477 549 37,000  Level Cleveland Center
Mon 06:09:53 PM 42.5092 -82.3408 84° East 477 549 37,000  Level Cleveland Center
Mon 06:10:53 PM 42.5203 -82.1578 85° East 477 549 37,000  Level Cleveland Center
Mon 06:11:53 PM 42.5308 -81.9750 85° East 477 549 37,000  Level Cleveland Center
Mon 06:12:53 PM 42.5414 -81.7892 86° East 482 555 37,000  Level Cleveland Center
Mon 06:13:53 PM 42.5558 -81.5922 84° East 482 555 37,000  Level Cleveland Center
Mon 06:14:53 PM 42.5678 -81.4064 85° East 482 555 37,000  Level Cleveland Center
Mon 06:15:53 PM 42.5772 -81.2231 86° East 482 555 37,000  Level Cleveland Center
Mon 06:16:53 PM 42.5886 -81.0400 85° East 482 555 37,000  Level Cleveland Center
Mon 06:17:53 PM 42.5975 -80.8539 86° East 488 562 37,000  Level Cleveland Center
Mon 06:18:53 PM 42.6061 -80.6706 86° East 493 567 37,000  Level Cleveland Center
Mon 06:19:53 PM 42.6164 -80.4817 86° East 498 573 37,000  Level Cleveland Center
Mon 06:20:53 PM 42.6225 -80.3153 87° East 498 573 37,000  Level Cleveland Center
Mon 06:21:53 PM 42.6322 -80.1317 86° East 493 567 37,000  Level Cleveland Center
Mon 06:22:53 PM 42.6439 -79.9256 86° East 493 567 37,000  Level Cleveland Center
Mon 06:23:53 PM 42.6553 -79.7392 85° East 498 573 37,000  Level Cleveland Center
Mon 06:24:53 PM 42.6578 -79.5528 89° East 498 573 37,000  Level Cleveland Center
Mon 06:25:53 PM 42.6683 -79.3633 86° East 498 573 37,000  Level Cleveland Center
Mon 06:26:53 PM 42.6767 -79.1769 86° East 498 573 37,000  Level Cleveland Center
Mon 06:27:53 PM 42.6806 -78.9875 88° East 493 567 37,000  Level Cleveland Center
Mon 06:28:53 PM 42.6861 -78.8008 88° East 500 575 37,000  Level Cleveland Center
Mon 06:29:53 PM 42.6936 -78.6114 87° East 500 575 37,000  Level Cleveland Center
Mon 06:30:53 PM 42.6983 -78.4219 88° East 500 575 37,000  Level Cleveland Center
Mon 06:31:53 PM 42.7050 -78.2297 87° East 500 575 37,000  Level Cleveland Center
Mon 06:32:53 PM 42.7117 -78.0428 87° East 495 570 37,000 -50 Level Cleveland Center
Mon 06:33:53 PM 42.7175 -77.8506 88° East 501 577 36,900  Descending Cleveland Center
Mon 06:34:53 PM 42.7211 -77.6553 88° East 501 577 37,000 26 Climbing Cleveland Center
Mon 06:37:44 PM 42.7317 -77.1106 88° East 498 573 37,000  Level Boston Center
Mon 06:38:44 PM 42.7353 -76.9214 88° East 498 573 37,000  Level Boston Center
Mon 06:39:44 PM 42.7386 -76.7264 89° East 498 573 37,000  Level Boston Center
Mon 06:40:44 PM 42.7414 -76.5369 89° East 498 573 37,000  Level Boston Center
Mon 06:41:44 PM 42.7439 -76.3450 89° East 498 573 37,000 -50 Level Boston Center
Mon 06:42:44 PM 42.7461 -76.1556 89° East 498 573 36,900 -50 Descending Boston Center
Mon 06:43:44 PM 42.7481 -75.9661 89° East 498 573 36,900  Level Boston Center
Mon 06:44:44 PM 42.7475 -75.7739 90° East 498 573 36,900  Level Boston Center
Mon 06:45:44 PM 42.7508 -75.5817 89° East 498 573 36,900  Level Boston Center
Mon 06:46:44 PM 42.7497 -75.3950 90° East 493 567 36,900 -850 Level Boston Center
Mon 06:47:44 PM 42.7519 -75.2225 89° East 498 573 35,200 -2,150 Descending Boston Center
Mon 06:48:44 PM 42.7522 -75.0331 90° East 498 573 32,600 -2,400 Descending Boston Center
Mon 06:49:44 PM 42.7522 -74.8464 90° East 492 566 30,400 -1,850 Descending Boston Center
Mon 06:50:44 PM 42.7517 -74.6683 90° East 492 566 28,900 -750 Descending Boston Center
Mon 06:51:44 PM 42.7506 -74.4986 90° East 467 537 28,900 -500 Level Boston Center
Mon 06:52:44 PM 42.7514 -74.3289 90° East 452 520 27,900 -1,000 Descending Boston Center
Mon 06:53:44 PM 42.7500 -74.1619 91° East 440 506 26,900 -1,000 Descending Boston Center
Mon 06:54:44 PM 42.7461 -73.9978 92° East 440 506 25,900 -1,000 Descending Boston Center
Mon 06:55:44 PM 42.7442 -73.8283 91° East 440 506 24,900 -1,000 Descending Boston Center
Mon 06:56:44 PM 42.7544 -73.6475 86° East 440 506 23,900 -950 Descending Boston Center
Mon 06:57:44 PM 42.7603 -73.4781 87° East 440 506 23,000 -1,000 Descending Boston Center
Mon 06:58:44 PM 42.7658 -73.3167 87° East 440 506 21,900 -1,000 Descending Boston Center
Mon 06:59:44 PM 42.7733 -73.1500 86° East 440 506 21,000 -1,000 Descending Boston Center
Mon 07:00:44 PM 42.7764 -72.9775 89° East 440 506 19,900 -1,000 Descending Boston Center
Mon 07:01:44 PM 42.7833 -72.8306 86° East 432 497 19,000 -800 Descending Boston Center
Mon 07:02:44 PM 42.7919 -72.6719 86° East 413 475 18,300 -1,550 Descending Boston Center
Mon 07:03:44 PM 42.7983 -72.5192 87° East 408 470 15,900 -2,273 Descending Boston Center
Mon 07:04:56 PM 42.8067 -72.3383 86° East 402 463 13,300 -2,182 Descending Boston Center
Mon 07:05:56 PM 42.8108 -72.1939 88° East 397 457 11,100 -1,500 Descending Boston Center
Mon 07:06:56 PM 42.8167 -72.0722 86° East 362 417 10,300 -1,000 Descending Boston Center
Mon 07:07:56 PM 42.8475 -71.9531 71° East 329 379 9,100 -1,350 Descending Boston Center
Mon 07:08:56 PM 42.9033 -71.8761 45° Northeast 303 349 7,600 -1,500 Descending Boston Center
Mon 07:09:56 PM 42.9694 -71.7847 45° Northeast 308 354 6,100 -1,500 Descending Boston Center
Mon 07:10:56 PM 43.0211 -71.7158 44° Northeast 295 339 4,600 -1,500 Descending Boston Center
Mon 07:11:56 PM 43.0853 -71.6269 45° Northeast 295 339 3,100 -911 Descending Boston Center
Mon 07:12:48 PM 43.1000 -71.5500 75° East 252 290 2,900 -321 Descending KA90
Mon 07:13:48 PM 43.0667 -71.5167 144° Southeast 187 215 2,500 -500 Descending KA90
Mon 07:14:48 PM 43.0167 -71.4833 154° Southeast 166 191 1,900 -700 Descending KA90
Mon 07:15:48 PM 42.9833 -71.4667 160° South 150 173 1,100 -750 Descending KA90
Mon 07:16:48 PM 42.9500 -71.4500 160° South 137 158 400 5,713 Descending KA90
Mon 07:18:56 PM 42.8686 -71.4006 156° South 148 170 19,000 5,936 Climbing Boston Center
Mon 07:19:56 PM 42.8331 -71.3783 155° Southeast 148 170 19,000  Level Boston Center
Mon 07:22:00 PM 42.9167 -71.4333 316° Northwest  Level FlightAware Approximate
Mon 07:29:00 PM 42.9328 -71.4358 316° Northwest  Level Estimated
Mon 07:30:00 PM 42.9328 -71.4358 316° Northwest  Level Estimated
Mon 07:31:00 PM 42.9328 -71.4358 316° Northwest  Level Estimated

Login

Don't have an account? Register now (free) for customized features, flight alerts, and more!